sensor_id;sensor_type;location;lat;lon;timestamp;pressure;altitude;pressure_sealevel;temperature;humidity
44481;BME280;30184;42.018;23.670;2024-02-14T00:01:36;90956.38;;;3.00;100.00
44481;BME280;30184;42.018;23.670;2024-02-14T00:04:07;90944.44;;;2.67;100.00
44481;BME280;30184;42.018;23.670;2024-02-14T00:06:36;91029.75;;;3.17;100.00
44481;BME280;30184;42.018;23.670;2024-02-14T00:09:06;90905.09;;;2.57;100.00
44481;BME280;30184;42.018;23.670;2024-02-14T00:11:35;90902.41;;;2.57;100.00
44481;BME280;30184;42.018;23.670;2024-02-14T00:14:04;91039.13;;;3.39;100.00
44481;BME280;30184;42.018;23.670;2024-02-14T00:16:35;90935.66;;;2.63;100.00
44481;BME280;30184;42.018;23.670;2024-02-14T00:19:08;91060.28;;;3.33;100.00
44481;BME280;30184;42.018;23.670;2024-02-14T00:21:37;91047.19;;;3.35;100.00
44481;BME280;30184;42.018;23.670;2024-02-14T00:24:07;91041.91;;;3.28;100.00
44481;BME280;30184;42.018;23.670;2024-02-14T00:26:36;91025.75;;;3.35;100.00
44481;BME280;30184;42.018;23.670;2024-02-14T00:29:07;91035.00;;;3.31;100.00
44481;BME280;30184;42.018;23.670;2024-02-14T00:31:36;91038.06;;;3.33;100.00
44481;BME280;30184;42.018;23.670;2024-02-14T00:34:15;90876.84;;;2.01;100.00
44481;BME280;30184;42.018;23.670;2024-02-14T00:36:45;90963.13;;;2.71;100.00
44481;BME280;30184;42.018;23.670;2024-02-14T00:39:14;91052.25;;;3.30;100.00
44481;BME280;30184;42.018;23.670;2024-02-14T00:41:46;90808.69;;;1.61;100.00
44481;BME280;30184;42.018;23.670;2024-02-14T00:44:15;91041.19;;;3.24;100.00
44481;BME280;30184;42.018;23.670;2024-02-14T00:46:46;91073.41;;;3.17;100.00
44481;BME280;30184;42.018;23.670;2024-02-14T00:49:17;91047.28;;;3.25;100.00
44481;BME280;30184;42.018;23.670;2024-02-14T00:51:46;90992.50;;;2.85;100.00
44481;BME280;30184;42.018;23.670;2024-02-14T00:54:16;90985.69;;;2.77;100.00
44481;BME280;30184;42.018;23.670;2024-02-14T00:56:45;91032.09;;;3.15;100.00
44481;BME280;30184;42.018;23.670;2024-02-14T00:59:14;91033.94;;;3.18;100.00
44481;BME280;30184;42.018;23.670;2024-02-14T01:01:44;91037.69;;;3.27;100.00
44481;BME280;30184;42.018;23.670;2024-02-14T01:04:13;91036.19;;;3.26;100.00
44481;BME280;30184;42.018;23.670;2024-02-14T01:06:43;91078.72;;;3.24;100.00
44481;BME280;30184;42.018;23.670;2024-02-14T01:09:13;90890.44;;;2.24;100.00
44481;BME280;30184;42.018;23.670;2024-02-14T01:11:42;90911.00;;;2.38;100.00
44481;BME280;30184;42.018;23.670;2024-02-14T01:14:11;90991.84;;;2.70;100.00
44481;BME280;30184;42.018;23.670;2024-02-14T01:16:45;90976.44;;;2.81;100.00
44481;BME280;30184;42.018;23.670;2024-02-14T01:19:14;91060.75;;;3.21;100.00
44481;BME280;30184;42.018;23.670;2024-02-14T01:21:44;91019.00;;;3.20;100.00
44481;BME280;30184;42.018;23.670;2024-02-14T01:24:16;91042.19;;;2.93;100.00
44481;BME280;30184;42.018;23.670;2024-02-14T01:26:45;91044.50;;;2.94;100.00
44481;BME280;30184;42.018;23.670;2024-02-14T01:29:14;91072.75;;;3.03;100.00
44481;BME280;30184;42.018;23.670;2024-02-14T01:31:44;91067.00;;;3.04;100.00
44481;BME280;30184;42.018;23.670;2024-02-14T01:34:13;90951.66;;;2.22;100.00
44481;BME280;30184;42.018;23.670;2024-02-14T01:36:42;90901.94;;;2.17;100.00
44481;BME280;30184;42.018;23.670;2024-02-14T01:39:13;90966.66;;;2.60;100.00
44481;BME280;30184;42.018;23.670;2024-02-14T01:41:44;91059.00;;;3.00;100.00
44481;BME280;30184;42.018;23.670;2024-02-14T01:44:16;90961.41;;;2.50;100.00
44481;BME280;30184;42.018;23.670;2024-02-14T01:46:45;91045.97;;;2.99;100.00
44481;BME280;30184;42.018;23.670;2024-02-14T01:49:15;91012.50;;;2.70;100.00
44481;BME280;30184;42.018;23.670;2024-02-14T01:51:46;91021.53;;;2.90;100.00
44481;BME280;30184;42.018;23.670;2024-02-14T01:54:17;90942.41;;;2.30;100.00
44481;BME280;30184;42.018;23.670;2024-02-14T01:56:46;91087.38;;;2.94;100.00
44481;BME280;30184;42.018;23.670;2024-02-14T01:59:15;91024.59;;;2.95;100.00
44481;BME280;30184;42.018;23.670;2024-02-14T02:01:45;91017.72;;;2.87;100.00
44481;BME280;30184;42.018;23.670;2024-02-14T02:04:15;90932.88;;;2.25;100.00
44481;BME280;30184;42.018;23.670;2024-02-14T02:06:45;90979.63;;;2.10;100.00
44481;BME280;30184;42.018;23.670;2024-02-14T02:09:16;91063.22;;;2.98;100.00
44481;BME280;30184;42.018;23.670;2024-02-14T02:11:46;91018.16;;;2.86;100.00
44481;BME280;30184;42.018;23.670;2024-02-14T02:14:36;91049.88;;;2.87;100.00
44481;BME280;30184;42.018;23.670;2024-02-14T02:17:25;90826.31;;;0.71;100.00
44481;BME280;30184;42.018;23.670;2024-02-14T02:20:15;91029.41;;;2.63;100.00
44481;BME280;30184;42.018;23.670;2024-02-14T02:22:48;90859.50;;;1.64;100.00
44481;BME280;30184;42.018;23.670;2024-02-14T02:25:37;91051.78;;;2.94;100.00
44481;BME280;30184;42.018;23.670;2024-02-14T02:28:20;91110.34;;;2.95;100.00
44481;BME280;30184;42.018;23.670;2024-02-14T02:30:51;90928.06;;;1.96;100.00
44481;BME280;30184;42.018;23.670;2024-02-14T02:33:21;90991.28;;;2.41;100.00
44481;BME280;30184;42.018;23.670;2024-02-14T02:35:51;90939.97;;;1.91;100.00
44481;BME280;30184;42.018;23.670;2024-02-14T02:38:41;91033.09;;;2.83;100.00
44481;BME280;30184;42.018;23.670;2024-02-14T02:41:30;91065.94;;;2.91;100.00
44481;BME280;30184;42.018;23.670;2024-02-14T02:44:19;91047.69;;;2.75;100.00
44481;BME280;30184;42.018;23.670;2024-02-14T02:47:06;91065.56;;;2.89;100.00
44481;BME280;30184;42.018;23.670;2024-02-14T02:49:57;91106.91;;;2.95;100.00
44481;BME280;30184;42.018;23.670;2024-02-14T02:52:48;91065.69;;;2.75;100.00
44481;BME280;30184;42.018;23.670;2024-02-14T02:55:39;91093.50;;;2.91;100.00
44481;BME280;30184;42.018;23.670;2024-02-14T02:58:09;91071.31;;;2.87;100.00
44481;BME280;30184;42.018;23.670;2024-02-14T03:00:38;91073.59;;;2.89;100.00
44481;BME280;30184;42.018;23.670;2024-02-14T03:03:20;90995.56;;;2.32;100.00
44481;BME280;30184;42.018;23.670;2024-02-14T03:06:06;91092.34;;;2.92;100.00
44481;BME280;30184;42.018;23.670;2024-02-14T03:08:56;91081.38;;;2.73;100.00
44481;BME280;30184;42.018;23.670;2024-02-14T03:11:47;90944.94;;;1.89;100.00
44481;BME280;30184;42.018;23.670;2024-02-14T03:14:36;91115.06;;;2.70;100.00
44481;BME280;30184;42.018;23.670;2024-02-14T03:17:26;91063.72;;;2.79;100.00
44481;BME280;30184;42.018;23.670;2024-02-14T03:19:56;91028.75;;;2.45;100.00
44481;BME280;30184;42.018;23.670;2024-02-14T03:22:25;91093.53;;;2.88;100.00
44481;BME280;30184;42.018;23.670;2024-02-14T03:24:54;91118.81;;;2.87;100.00
44481;BME280;30184;42.018;23.670;2024-02-14T03:27:25;91065.63;;;2.78;100.00
44481;BME280;30184;42.018;23.670;2024-02-14T03:29:54;90966.34;;;1.85;100.00
44481;BME280;30184;42.018;23.670;2024-02-14T03:32:26;90952.19;;;1.88;100.00
44481;BME280;30184;42.018;23.670;2024-02-14T03:34:55;91039.78;;;2.54;100.00
44481;BME280;30184;42.018;23.670;2024-02-14T03:37:24;91046.22;;;2.63;100.00
44481;BME280;30184;42.018;23.670;2024-02-14T03:39:53;91136.41;;;2.88;100.00
44481;BME280;30184;42.018;23.670;2024-02-14T03:42:22;91076.78;;;2.73;100.00
44481;BME280;30184;42.018;23.670;2024-02-14T03:44:53;91105.00;;;2.88;100.00
44481;BME280;30184;42.018;23.670;2024-02-14T03:47:32;91124.19;;;2.87;100.00
44481;BME280;30184;42.018;23.670;2024-02-14T03:50:01;91096.06;;;2.47;100.00
44481;BME280;30184;42.018;23.670;2024-02-14T03:52:32;91117.31;;;2.82;100.00
44481;BME280;30184;42.018;23.670;2024-02-14T03:55:02;91125.19;;;2.38;100.00
44481;BME280;30184;42.018;23.670;2024-02-14T03:57:33;91101.66;;;2.77;100.00
44481;BME280;30184;42.018;23.670;2024-02-14T04:00:08;91158.69;;;2.71;100.00
44481;BME280;30184;42.018;23.670;2024-02-14T04:02:39;91108.22;;;2.66;100.00
44481;BME280;30184;42.018;23.670;2024-02-14T04:05:08;91007.56;;;1.95;100.00
44481;BME280;30184;42.018;23.670;2024-02-14T04:07:38;91112.03;;;2.65;100.00
44481;BME280;30184;42.018;23.670;2024-02-14T04:10:07;91100.66;;;2.46;100.00
44481;BME280;30184;42.018;23.670;2024-02-14T04:12:36;91167.56;;;2.53;100.00
44481;BME280;30184;42.018;23.670;2024-02-14T04:15:08;91077.50;;;2.08;100.00
44481;BME280;30184;42.018;23.670;2024-02-14T04:17:48;91128.16;;;2.57;100.00
44481;BME280;30184;42.018;23.670;2024-02-14T04:20:18;91094.31;;;2.08;100.00
44481;BME280;30184;42.018;23.670;2024-02-14T04:22:47;91122.59;;;2.06;100.00
44481;BME280;30184;42.018;23.670;2024-02-14T04:25:16;91032.53;;;1.74;100.00
44481;BME280;30184;42.018;23.670;2024-02-14T04:27:46;91000.13;;;1.40;100.00
44481;BME280;30184;42.018;23.670;2024-02-14T04:30:17;91183.34;;;2.30;100.00
44481;BME280;30184;42.018;23.670;2024-02-14T04:33:04;91154.97;;;2.43;100.00
44481;BME280;30184;42.018;23.670;2024-02-14T04:35:35;91156.50;;;2.44;100.00
44481;BME280;30184;42.018;23.670;2024-02-14T04:38:04;91178.75;;;2.27;100.00
44481;BME280;30184;42.018;23.670;2024-02-14T04:40:33;91046.31;;;1.66;100.00
44481;BME280;30184;42.018;23.670;2024-02-14T04:43:03;91105.06;;;1.87;100.00
44481;BME280;30184;42.018;23.670;2024-02-14T04:45:33;91108.47;;;2.12;100.00
44481;BME280;30184;42.018;23.670;2024-02-14T04:48:07;91187.09;;;2.50;100.00
44481;BME280;30184;42.018;23.670;2024-02-14T04:50:36;91205.44;;;2.52;100.00
44481;BME280;30184;42.018;23.670;2024-02-14T04:53:07;91165.75;;;2.25;100.00
44481;BME280;30184;42.018;23.670;2024-02-14T04:55:36;91092.06;;;2.00;100.00
44481;BME280;30184;42.018;23.670;2024-02-14T04:58:05;91091.63;;;2.05;100.00
44481;BME280;30184;42.018;23.670;2024-02-14T05:00:36;91136.72;;;2.13;100.00
44481;BME280;30184;42.018;23.670;2024-02-14T05:03:06;91153.09;;;2.37;100.00
44481;BME280;30184;42.018;23.670;2024-02-14T05:05:35;91181.72;;;2.54;100.00
44481;BME280;30184;42.018;23.670;2024-02-14T05:08:05;91168.72;;;2.56;100.00
44481;BME280;30184;42.018;23.670;2024-02-14T05:10:34;91191.63;;;2.64;100.00
44481;BME280;30184;42.018;23.670;2024-02-14T05:13:03;91157.66;;;2.47;100.00
44481;BME280;30184;42.018;23.670;2024-02-14T05:15:32;91161.09;;;2.47;100.00
44481;BME280;30184;42.018;23.670;2024-02-14T05:18:04;91187.44;;;2.67;100.00
44481;BME280;30184;42.018;23.670;2024-02-14T05:20:34;91207.72;;;2.68;100.00
44481;BME280;30184;42.018;23.670;2024-02-14T05:23:03;91081.72;;;1.98;100.00
44481;BME280;30184;42.018;23.670;2024-02-14T05:25:32;91265.13;;;2.56;100.00
44481;BME280;30184;42.018;23.670;2024-02-14T05:28:03;91147.41;;;2.28;100.00
44481;BME280;30184;42.018;23.670;2024-02-14T05:30:32;91167.19;;;2.58;100.00
44481;BME280;30184;42.018;23.670;2024-02-14T05:33:15;91106.91;;;2.18;100.00
44481;BME280;30184;42.018;23.670;2024-02-14T05:35:49;91195.41;;;2.77;100.00
44481;BME280;30184;42.018;23.670;2024-02-14T05:38:18;91144.69;;;2.38;100.00
44481;BME280;30184;42.018;23.670;2024-02-14T05:40:48;91198.44;;;2.83;100.00
44481;BME280;30184;42.018;23.670;2024-02-14T05:43:17;91198.06;;;2.84;100.00
44481;BME280;30184;42.018;23.670;2024-02-14T05:45:47;91203.03;;;2.86;100.00
44481;BME280;30184;42.018;23.670;2024-02-14T05:48:17;91114.50;;;2.27;100.00
44481;BME280;30184;42.018;23.670;2024-02-14T05:50:46;91143.97;;;2.20;100.00
44481;BME280;30184;42.018;23.670;2024-02-14T05:53:16;91210.69;;;2.84;100.00
44481;BME280;30184;42.018;23.670;2024-02-14T05:55:45;91108.81;;;2.14;100.00
44481;BME280;30184;42.018;23.670;2024-02-14T05:58:14;90980.72;;;1.11;100.00
44481;BME280;30184;42.018;23.670;2024-02-14T06:00:43;91197.00;;;2.60;100.00
44481;BME280;30184;42.018;23.670;2024-02-14T06:03:12;91206.81;;;2.92;100.00
44481;BME280;30184;42.018;23.670;2024-02-14T06:05:43;91201.09;;;2.90;100.00
44481;BME280;30184;42.018;23.670;2024-02-14T06:08:13;91234.00;;;2.90;100.00
44481;BME280;30184;42.018;23.670;2024-02-14T06:10:42;91237.09;;;2.85;100.00
44481;BME280;30184;42.018;23.670;2024-02-14T06:13:11;91114.97;;;2.08;100.00
44481;BME280;30184;42.018;23.670;2024-02-14T06:15:40;91116.81;;;2.25;100.00
44481;BME280;30184;42.018;23.670;2024-02-14T06:18:09;91258.97;;;2.77;100.00
44481;BME280;30184;42.018;23.670;2024-02-14T06:20:38;91271.19;;;2.85;100.00
44481;BME280;30184;42.018;23.670;2024-02-14T06:23:09;91245.50;;;2.94;100.00
44481;BME280;30184;42.018;23.670;2024-02-14T06:25:38;91090.66;;;1.45;100.00
44481;BME280;30184;42.018;23.670;2024-02-14T06:28:09;91257.38;;;2.90;100.00
44481;BME280;30184;42.018;23.670;2024-02-14T06:30:38;91235.16;;;2.96;100.00
44481;BME280;30184;42.018;23.670;2024-02-14T06:33:07;91223.72;;;2.78;100.00
44481;BME280;30184;42.018;23.670;2024-02-14T06:35:37;91250.88;;;2.84;100.00
44481;BME280;30184;42.018;23.670;2024-02-14T06:38:06;91173.34;;;2.41;100.00
44481;BME280;30184;42.018;23.670;2024-02-14T06:40:36;91287.59;;;2.94;100.00
44481;BME280;30184;42.018;23.670;2024-02-14T06:43:06;91250.91;;;2.77;100.00
44481;BME280;30184;42.018;23.670;2024-02-14T06:45:35;91161.97;;;2.12;100.00
44481;BME280;30184;42.018;23.670;2024-02-14T06:48:16;91173.75;;;2.33;100.00
44481;BME280;30184;42.018;23.670;2024-02-14T06:50:48;91272.66;;;2.96;100.00
44481;BME280;30184;42.018;23.670;2024-02-14T06:53:17;91294.59;;;2.42;100.00
44481;BME280;30184;42.018;23.670;2024-02-14T06:55:48;91239.06;;;2.71;100.00
44481;BME280;30184;42.018;23.670;2024-02-14T06:58:18;91269.69;;;2.77;100.00
44481;BME280;30184;42.018;23.670;2024-02-14T07:00:47;91228.72;;;2.73;100.00
44481;BME280;30184;42.018;23.670;2024-02-14T07:03:16;91317.03;;;3.08;100.00
44481;BME280;30184;42.018;23.670;2024-02-14T07:05:45;91189.41;;;2.41;100.00
44481;BME280;30184;42.018;23.670;2024-02-14T07:08:14;91300.91;;;3.19;100.00
44481;BME280;30184;42.018;23.670;2024-02-14T07:10:44;91260.34;;;3.10;100.00
44481;BME280;30184;42.018;23.670;2024-02-14T07:13:14;91243.09;;;3.14;100.00
44481;BME280;30184;42.018;23.670;2024-02-14T07:15:44;91237.59;;;2.41;100.00
44481;BME280;30184;42.018;23.670;2024-02-14T07:18:14;91255.59;;;3.38;100.00
44481;BME280;30184;42.018;23.670;2024-02-14T07:20:43;91296.06;;;3.69;100.00
44481;BME280;30184;42.018;23.670;2024-02-14T07:23:12;91204.38;;;3.19;100.00
44481;BME280;30184;42.018;23.670;2024-02-14T07:25:41;91105.56;;;2.58;100.00
44481;BME280;30184;42.018;23.670;2024-02-14T07:28:11;91289.75;;;3.93;100.00
44481;BME280;30184;42.018;23.670;2024-02-14T07:30:41;91295.06;;;4.00;100.00
44481;BME280;30184;42.018;23.670;2024-02-14T07:33:11;91291.22;;;4.05;100.00
44481;BME280;30184;42.018;23.670;2024-02-14T07:35:40;91311.13;;;4.07;100.00
44481;BME280;30184;42.018;23.670;2024-02-14T07:38:10;91299.09;;;4.26;100.00
44481;BME280;30184;42.018;23.670;2024-02-14T07:40:39;91157.50;;;3.41;100.00
44481;BME280;30184;42.018;23.670;2024-02-14T07:43:16;91336.13;;;3.97;100.00
44481;BME280;30184;42.018;23.670;2024-02-14T07:45:46;91209.91;;;4.04;100.00
44481;BME280;30184;42.018;23.670;2024-02-14T07:48:16;91236.69;;;4.08;100.00
44481;BME280;30184;42.018;23.670;2024-02-14T07:50:45;91310.44;;;4.85;100.00
44481;BME280;30184;42.018;23.670;2024-02-14T07:53:14;91295.94;;;4.76;100.00
44481;BME280;30184;42.018;23.670;2024-02-14T07:55:43;91262.50;;;4.43;98.70
44481;BME280;30184;42.018;23.670;2024-02-14T07:58:12;91209.94;;;4.38;98.73
44481;BME280;30184;42.018;23.670;2024-02-14T08:00:41;91354.31;;;5.16;98.70
44481;BME280;30184;42.018;23.670;2024-02-14T08:03:12;91240.75;;;4.68;97.47
44481;BME280;30184;42.018;23.670;2024-02-14T08:05:41;91349.53;;;5.31;96.61
44481;BME280;30184;42.018;23.670;2024-02-14T08:08:11;91317.22;;;5.35;95.40
44481;BME280;30184;42.018;23.670;2024-02-14T08:10:40;91340.19;;;5.43;94.79
44481;BME280;30184;42.018;23.670;2024-02-14T08:13:09;91341.66;;;5.47;94.31
44481;BME280;30184;42.018;23.670;2024-02-14T08:15:38;91292.13;;;5.41;94.10
44481;BME280;30184;42.018;23.670;2024-02-14T08:18:08;91143.53;;;4.42;93.44
44481;BME280;30184;42.018;23.670;2024-02-14T08:20:39;91322.56;;;5.69;93.50
44481;BME280;30184;42.018;23.670;2024-02-14T08:23:13;91304.50;;;5.66;92.92
44481;BME280;30184;42.018;23.670;2024-02-14T08:25:42;91368.59;;;5.78;92.03
44481;BME280;30184;42.018;23.670;2024-02-14T08:28:11;91345.22;;;5.71;91.53
44481;BME280;30184;42.018;23.670;2024-02-14T08:30:40;91229.69;;;4.96;90.73
44481;BME280;30184;42.018;23.670;2024-02-14T08:33:09;91326.78;;;5.70;91.87
44481;BME280;30184;42.018;23.670;2024-02-14T08:35:40;91214.00;;;4.91;90.95
44481;BME280;30184;42.018;23.670;2024-02-14T08:38:10;91107.28;;;4.24;90.29
44481;BME280;30184;42.018;23.670;2024-02-14T08:40:39;91191.28;;;4.96;90.15
44481;BME280;30184;42.018;23.670;2024-02-14T08:43:08;91239.31;;;5.24;90.37
44481;BME280;30184;42.018;23.670;2024-02-14T08:45:37;91321.22;;;5.84;90.09
44481;BME280;30184;42.018;23.670;2024-02-14T08:48:07;91301.13;;;5.61;89.59
44481;BME280;30184;42.018;23.670;2024-02-14T08:50:36;91270.72;;;5.34;89.37
44481;BME280;30184;42.018;23.670;2024-02-14T08:53:06;91332.69;;;5.91;89.74
44481;BME280;30184;42.018;23.670;2024-02-14T08:55:35;91221.25;;;5.24;89.07
44481;BME280;30184;42.018;23.670;2024-02-14T08:58:05;91316.91;;;5.90;89.19
44481;BME280;30184;42.018;23.670;2024-02-14T09:00:37;91346.00;;;6.02;89.12
44481;BME280;30184;42.018;23.670;2024-02-14T09:03:07;91341.00;;;6.01;88.38
44481;BME280;30184;42.018;23.670;2024-02-14T09:05:36;91349.91;;;5.97;88.61
44481;BME280;30184;42.018;23.670;2024-02-14T09:08:08;91340.53;;;6.06;88.23
44481;BME280;30184;42.018;23.670;2024-02-14T09:10:37;91344.22;;;5.92;86.68
44481;BME280;30184;42.018;23.670;2024-02-14T09:13:06;91198.16;;;5.00;85.53
44481;BME280;30184;42.018;23.670;2024-02-14T09:15:36;91265.19;;;5.45;84.33
44481;BME280;30184;42.018;23.670;2024-02-14T09:18:06;91343.81;;;5.59;84.39
44481;BME280;30184;42.018;23.670;2024-02-14T09:20:35;91216.00;;;5.14;84.30
44481;BME280;30184;42.018;23.670;2024-02-14T09:23:05;91115.94;;;4.38;84.62
44481;BME280;30184;42.018;23.670;2024-02-14T09:25:37;91349.75;;;6.08;85.19
44481;BME280;30184;42.018;23.670;2024-02-14T09:28:07;91287.16;;;5.40;84.76
44481;BME280;30184;42.018;23.670;2024-02-14T09:30:37;91355.03;;;6.15;86.51
44481;BME280;30184;42.018;23.670;2024-02-14T09:33:06;91359.97;;;6.20;86.78
44481;BME280;30184;42.018;23.670;2024-02-14T09:35:36;91261.16;;;5.60;86.17
44481;BME280;30184;42.018;23.670;2024-02-14T09:38:07;91355.69;;;6.23;85.59
44481;BME280;30184;42.018;23.670;2024-02-14T09:40:38;91299.97;;;5.93;85.33
44481;BME280;30184;42.018;23.670;2024-02-14T09:43:16;91353.50;;;6.41;85.22
44481;BME280;30184;42.018;23.670;2024-02-14T09:45:51;91334.50;;;6.25;86.10
44481;BME280;30184;42.018;23.670;2024-02-14T09:48:23;91326.47;;;6.21;85.63
44481;BME280;30184;42.018;23.670;2024-02-14T09:50:53;91234.22;;;5.87;85.51
44481;BME280;30184;42.018;23.670;2024-02-14T09:53:23;91346.63;;;6.63;84.70
44481;BME280;30184;42.018;23.670;2024-02-14T09:55:54;91316.25;;;6.59;84.12
44481;BME280;30184;42.018;23.670;2024-02-14T09:58:24;91202.75;;;5.84;83.27
44481;BME280;30184;42.018;23.670;2024-02-14T10:00:54;91225.75;;;5.88;82.25
44481;BME280;30184;42.018;23.670;2024-02-14T10:03:24;91256.78;;;6.47;82.27
44481;BME280;30184;42.018;23.670;2024-02-14T10:05:54;91336.34;;;6.78;82.52
44481;BME280;30184;42.018;23.670;2024-02-14T10:08:23;91284.44;;;6.51;82.79
44481;BME280;30184;42.018;23.670;2024-02-14T10:10:56;91225.03;;;6.34;82.07
44481;BME280;30184;42.018;23.670;2024-02-14T10:13:27;91342.97;;;7.40;80.59
44481;BME280;30184;42.018;23.670;2024-02-14T10:15:59;91336.25;;;7.48;80.20
44481;BME280;30184;42.018;23.670;2024-02-14T10:18:28;91362.97;;;7.42;78.52
44481;BME280;30184;42.018;23.670;2024-02-14T10:20:57;91312.03;;;7.44;79.33
44481;BME280;30184;42.018;23.670;2024-02-14T10:23:27;91242.75;;;6.98;78.57
44481;BME280;30184;42.018;23.670;2024-02-14T10:25:59;91333.00;;;7.76;78.89
44481;BME280;30184;42.018;23.670;2024-02-14T10:28:28;91311.97;;;7.68;77.29
44481;BME280;30184;42.018;23.670;2024-02-14T10:30:59;91163.50;;;6.72;77.77
44481;BME280;30184;42.018;23.670;2024-02-14T10:33:28;91335.09;;;7.69;77.92
44481;BME280;30184;42.018;23.670;2024-02-14T10:35:58;91146.22;;;6.70;77.55
44481;BME280;30184;42.018;23.670;2024-02-14T10:38:31;91328.03;;;8.11;77.69
44481;BME280;30184;42.018;23.670;2024-02-14T10:41:02;91150.63;;;7.00;77.05
44481;BME280;30184;42.018;23.670;2024-02-14T10:43:32;91321.63;;;8.21;76.48
44481;BME280;30184;42.018;23.670;2024-02-14T10:46:08;91321.22;;;8.22;75.57
44481;BME280;30184;42.018;23.670;2024-02-14T10:48:39;91324.88;;;8.32;75.72
44481;BME280;30184;42.018;23.670;2024-02-14T10:51:10;91289.59;;;8.19;74.46
44481;BME280;30184;42.018;23.670;2024-02-14T10:53:45;91320.84;;;8.40;74.46
44481;BME280;30184;42.018;23.670;2024-02-14T10:56:18;91217.53;;;7.80;74.95
44481;BME280;30184;42.018;23.670;2024-02-14T10:58:47;91319.66;;;8.57;75.15
44481;BME280;30184;42.018;23.670;2024-02-14T11:01:18;91341.88;;;8.65;74.96
44481;BME280;30184;42.018;23.670;2024-02-14T11:03:48;91319.22;;;8.75;73.84
44481;BME280;30184;42.018;23.670;2024-02-14T11:06:18;91179.56;;;7.35;72.84
44481;BME280;30184;42.018;23.670;2024-02-14T11:08:56;91335.28;;;8.82;73.72
44481;BME280;30184;42.018;23.670;2024-02-14T11:11:29;91328.28;;;8.85;72.91
44481;BME280;30184;42.018;23.670;2024-02-14T11:13:59;91336.56;;;8.94;71.83
44481;BME280;30184;42.018;23.670;2024-02-14T11:16:30;91231.44;;;8.31;70.96
44481;BME280;30184;42.018;23.670;2024-02-14T11:19:07;91247.31;;;8.45;70.74
44481;BME280;30184;42.018;23.670;2024-02-14T11:21:40;91310.50;;;9.00;72.17
44481;BME280;30184;42.018;23.670;2024-02-14T11:24:12;91272.81;;;8.77;70.74
44481;BME280;30184;42.018;23.670;2024-02-14T11:26:51;91285.66;;;8.89;69.63
44481;BME280;30184;42.018;23.670;2024-02-14T11:29:20;91298.84;;;8.87;69.36
44481;BME280;30184;42.018;23.670;2024-02-14T11:31:57;91314.28;;;9.03;71.00
44481;BME280;30184;42.018;23.670;2024-02-14T11:34:27;91309.72;;;8.99;68.28
44481;BME280;30184;42.018;23.670;2024-02-14T11:37:01;91288.63;;;8.78;68.65
44481;BME280;30184;42.018;23.670;2024-02-14T11:39:30;91209.09;;;8.27;67.55
44481;BME280;30184;42.018;23.670;2024-02-14T11:42:03;91281.13;;;8.70;67.88
44481;BME280;30184;42.018;23.670;2024-02-14T11:44:32;91143.41;;;7.65;68.26
44481;BME280;30184;42.018;23.670;2024-02-14T11:47:02;91339.16;;;8.81;66.96
44481;BME280;30184;42.018;23.670;2024-02-14T11:49:32;91308.06;;;8.89;67.51
44481;BME280;30184;42.018;23.670;2024-02-14T11:52:02;91290.66;;;8.74;66.66
44481;BME280;30184;42.018;23.670;2024-02-14T11:54:33;91312.28;;;8.90;65.88
44481;BME280;30184;42.018;23.670;2024-02-14T11:57:04;91054.81;;;7.28;66.96
44481;BME280;30184;42.018;23.670;2024-02-14T11:59:36;91291.72;;;8.93;66.07
44481;BME280;30184;42.018;23.670;2024-02-14T12:02:05;91061.06;;;7.57;66.31
44481;BME280;30184;42.018;23.670;2024-02-14T12:04:34;91304.31;;;9.45;64.71
44481;BME280;30184;42.018;23.670;2024-02-14T12:07:04;91296.00;;;9.64;64.70
44481;BME280;30184;42.018;23.670;2024-02-14T12:09:33;91293.47;;;9.86;63.04
44481;BME280;30184;42.018;23.670;2024-02-14T12:12:04;91186.94;;;9.22;62.34
44481;BME280;30184;42.018;23.670;2024-02-14T12:14:33;91297.38;;;10.10;60.66
44481;BME280;30184;42.018;23.670;2024-02-14T12:17:03;91227.09;;;9.65;60.08
44481;BME280;30184;42.018;23.670;2024-02-14T12:19:34;91347.97;;;10.17;59.10
44481;BME280;30184;42.018;23.670;2024-02-14T12:22:09;91301.31;;;10.09;59.00
44481;BME280;30184;42.018;23.670;2024-02-14T12:24:39;91294.69;;;9.98;61.39
44481;BME280;30184;42.018;23.670;2024-02-14T12:27:10;91309.94;;;9.79;61.80
44481;BME280;30184;42.018;23.670;2024-02-14T12:29:39;91279.75;;;9.64;62.76
44481;BME280;30184;42.018;23.670;2024-02-14T12:32:09;91249.16;;;9.10;63.52
44481;BME280;30184;42.018;23.670;2024-02-14T12:34:38;91306.84;;;9.64;63.08
44481;BME280;30184;42.018;23.670;2024-02-14T12:37:07;91321.69;;;9.60;63.91
44481;BME280;30184;42.018;23.670;2024-02-14T12:39:38;91309.63;;;9.48;62.55
44481;BME280;30184;42.018;23.670;2024-02-14T12:42:07;91219.56;;;8.74;63.98
44481;BME280;30184;42.018;23.670;2024-02-14T12:44:38;91284.13;;;8.88;65.07
44481;BME280;30184;42.018;23.670;2024-02-14T12:47:07;91308.81;;;9.06;66.54
44481;BME280;30184;42.018;23.670;2024-02-14T12:49:36;91324.72;;;8.88;66.79
44481;BME280;30184;42.018;23.670;2024-02-14T12:52:05;91229.72;;;8.21;67.10
44481;BME280;30184;42.018;23.670;2024-02-14T12:54:34;91227.25;;;8.10;67.56
44481;BME280;30184;42.018;23.670;2024-02-14T12:57:04;91234.44;;;8.01;68.96
44481;BME280;30184;42.018;23.670;2024-02-14T12:59:34;91197.25;;;7.00;69.45
44481;BME280;30184;42.018;23.670;2024-02-14T13:02:05;91318.63;;;8.35;71.21
44481;BME280;30184;42.018;23.670;2024-02-14T13:04:36;91346.19;;;8.27;72.63
44481;BME280;30184;42.018;23.670;2024-02-14T13:07:05;91365.78;;;8.14;72.55
44481;BME280;30184;42.018;23.670;2024-02-14T13:09:34;91347.53;;;8.18;71.24
44481;BME280;30184;42.018;23.670;2024-02-14T13:12:05;91231.94;;;7.38;71.15
44481;BME280;30184;42.018;23.670;2024-02-14T13:14:37;91237.41;;;7.34;72.04
44481;BME280;30184;42.018;23.670;2024-02-14T13:17:08;91368.69;;;7.25;73.47